Time;durP1;ratioP1;P1;durP2;ratioP2;P2;SDS_P1;SDS_P2;PMS_P1;PMS_P2;Temp;Humidity;BMP_temperature;BMP_pressure;BME280_temperature;BME280_humidity;BME280_pressure;Samples;Min_cycle;Max_cycle;Signal;HPM_P1;HPM_P2
2022/10/12 00:00:17;;;;;;;;;;;15.60;99.90;;;;;;5088960;28;19916;-75
2022/10/12 00:02:44;;;;;;;;;;;15.60;99.90;;;;;;5091730;28;20337;-73
2022/10/12 00:05:11;;;;;;;;;;;15.60;99.90;;;;;;5092507;28;19999;-72
2022/10/12 00:07:38;;;;;;;;;;;15.50;99.90;;;;;;5092442;28;19912;-70
2022/10/12 00:10:05;;;;;;;;;;;15.50;99.90;;;;;;5092470;28;20388;-69
2022/10/12 00:12:32;;;;;;;;;;;15.50;99.90;;;;;;5092638;28;20008;-73
2022/10/12 00:14:59;;;;;;;;;;;15.50;99.90;;;;;;5092510;28;19915;-70
2022/10/12 00:17:26;;;;;;;;;;;15.40;99.90;;;;;;5124969;28;19919;-72
2022/10/12 00:19:52;;;;;;;;;;;15.40;99.90;;;;;;5092486;28;19908;-73
2022/10/12 00:22:19;;;;;;;;;;;15.40;99.90;;;;;;5093051;28;19915;-75
2022/10/12 00:24:46;;;;;;;;;;;15.40;99.90;;;;;;5096743;28;19919;-70
2022/10/12 00:27:12;;;;;;;;;;;15.40;99.90;;;;;;5101162;28;19975;-69
2022/10/12 00:29:39;;;;;;;;;;;15.50;99.90;;;;;;5102719;28;19943;-71
2022/10/12 00:32:06;;;;;;;;;;;15.60;99.90;;;;;;5102508;28;19916;-70
2022/10/12 00:34:32;;;;;;;;;;;15.60;99.90;;;;;;5098596;28;19908;-70
2022/10/12 00:36:59;;;;;;;;;;;15.60;99.90;;;;;;5129952;28;19916;-70
2022/10/12 00:39:26;;;;;;;;;;;15.80;99.90;;;;;;5095843;28;20388;-70
2022/10/12 00:41:54;;;;;;;;;;;15.80;99.90;;;;;;5092796;28;20347;-73
2022/10/12 00:44:39;;;;;;;;;;;15.80;99.90;;;;;;5092273;28;20008;-71
2022/10/12 00:47:09;;;;;;;;;;;15.80;99.90;;;;;;5093901;28;19912;-71
2022/10/12 00:49:36;;;;;;;;;;;15.70;99.90;;;;;;5095560;28;20362;-70
2022/10/12 00:52:06;;;;;;;;;;;15.70;99.90;;;;;;5096373;28;20299;-73
2022/10/12 00:54:35;;;;;;;;;;;15.70;99.90;;;;;;5095988;28;19912;-68
2022/10/12 00:57:03;;;;;;;;;;;15.70;99.90;;;;;;5096118;28;19912;-73
2022/10/12 00:59:42;;;;;;;;;;;15.70;99.90;;;;;;5095644;28;19909;-75
2022/10/12 01:02:09;;;;;;;;;;;15.70;99.90;;;;;;5095994;28;19935;-74
2022/10/12 01:04:36;;;;;;;;;;;15.80;99.90;;;;;;5095959;28;19912;-73
2022/10/12 01:07:03;;;;;;;;;;;15.90;99.90;;;;;;5095481;28;20366;-70
2022/10/12 01:09:33;;;;;;;;;;;15.80;99.90;;;;;;5095087;28;19920;-72
2022/10/12 01:11:59;;;;;;;;;;;15.70;99.90;;;;;;5095691;28;19908;-70
2022/10/12 01:14:26;;;;;;;;;;;15.70;99.90;;;;;;5095649;28;19915;-71
2022/10/12 01:17:07;;;;;;;;;;;15.80;99.90;;;;;;5095578;28;19950;-69
2022/10/12 01:19:58;;;;;;;;;;;15.90;99.90;;;;;;5095601;28;19958;-75
2022/10/12 01:22:26;;;;;;;;;;;16.00;99.90;;;;;;5096115;28;19912;-72
2022/10/12 01:24:55;;;;;;;;;;;16.30;99.90;;;;;;5115950;28;20128;-71
2022/10/12 01:27:22;;;;;;;;;;;16.70;99.90;;;;;;5096158;28;19919;-74
2022/10/12 01:29:57;;;;;;;;;;;16.90;99.90;;;;;;5094948;28;19924;-69
2022/10/12 01:32:30;;;;;;;;;;;17.10;99.90;;;;;;5095379;28;19909;-72
2022/10/12 01:35:06;;;;;;;;;;;17.30;99.90;;;;;;5095446;28;19915;-74
2022/10/12 01:37:51;;;;;;;;;;;17.40;99.90;;;;;;5095239;28;20302;-73
2022/10/12 01:40:30;;;;;;;;;;;17.40;99.90;;;;;;5094925;28;19912;-70
2022/10/12 01:42:57;;;;;;;;;;;17.20;99.90;;;;;;5095363;28;19947;-72
2022/10/12 01:45:24;;;;;;;;;;;17.30;99.90;;;;;;5094938;28;20391;-73
2022/10/12 01:47:52;;;;;;;;;;;17.50;99.90;;;;;;5094955;28;19928;-74
2022/10/12 01:50:20;;;;;;;;;;;17.80;99.90;;;;;;5094667;28;19963;-74
2022/10/12 01:52:47;;;;;;;;;;;17.80;99.90;;;;;;5095302;28;19969;-71
2022/10/12 01:55:21;;;;;;;;;;;17.90;99.90;;;;;;5095047;28;20354;-70
2022/10/12 01:57:48;;;;;;;;;;;18.20;99.90;;;;;;5074383;28;19943;-70
2022/10/12 02:00:16;;;;;;;;;;;18.20;99.90;;;;;;5074218;28;19918;-70
2022/10/12 02:02:55;;;;;;;;;;;18.20;99.90;;;;;;5074537;28;20024;-73
2022/10/12 02:05:28;;;;;;;;;;;18.10;99.90;;;;;;5074276;28;19992;-75
2022/10/12 02:07:58;;;;;;;;;;;18.20;99.90;;;;;;5074492;28;19954;-71
2022/10/12 02:10:32;;;;;;;;;;;18.20;99.90;;;;;;5073585;28;20303;-72
2022/10/12 02:13:01;;;;;;;;;;;18.10;99.90;;;;;;5074283;28;19979;-69
2022/10/12 02:15:29;;;;;;;;;;;18.00;99.90;;;;;;5074257;28;19954;-69
2022/10/12 02:17:57;;;;;;;;;;;18.10;99.90;;;;;;5074213;28;20231;-68
2022/10/12 02:20:26;;;;;;;;;;;18.10;99.90;;;;;;5073790;28;19918;-68
2022/10/12 02:22:56;;;;;;;;;;;18.10;99.90;;;;;;5074241;28;19912;-73
2022/10/12 02:25:26;;;;;;;;;;;18.10;99.90;;;;;;5073924;28;19998;-70
2022/10/12 02:27:58;;;;;;;;;;;18.10;99.90;;;;;;5106087;28;19916;-75
2022/10/12 02:30:25;;;;;;;;;;;18.00;99.90;;;;;;5073578;28;19950;-70
2022/10/12 02:32:58;;;;;;;;;;;18.10;99.90;;;;;;5073916;28;19916;-73
2022/10/12 02:35:25;;;;;;;;;;;18.00;99.90;;;;;;5073473;28;20343;-71
2022/10/12 02:38:12;;;;;;;;;;;18.00;99.90;;;;;;5073659;28;20318;-75
2022/10/12 02:40:39;;;;;;;;;;;18.10;99.90;;;;;;5073583;28;19909;-71
2022/10/12 02:43:15;;;;;;;;;;;18.20;99.90;;;;;;5074393;28;19912;-72
2022/10/12 02:45:44;;;;;;;;;;;18.20;99.90;;;;;;5073796;28;19920;-71
2022/10/12 02:48:15;;;;;;;;;;;18.20;99.90;;;;;;5073580;28;19909;-71
2022/10/12 02:50:42;;;;;;;;;;;18.20;99.90;;;;;;5071645;28;19916;-73
2022/10/12 02:53:11;;;;;;;;;;;18.20;99.90;;;;;;5073408;28;19909;-72
2022/10/12 02:55:45;;;;;;;;;;;18.10;99.90;;;;;;5076048;28;20350;-73
2022/10/12 02:58:12;;;;;;;;;;;18.10;99.90;;;;;;5099819;28;20328;-71
2022/10/12 03:00:38;;;;;;;;;;;18.10;99.90;;;;;;5102833;28;20298;-70
2022/10/12 03:03:05;;;;;;;;;;;18.10;99.90;;;;;;5093492;28;19915;-70
2022/10/12 03:05:33;;;;;;;;;;;18.10;99.90;;;;;;5093490;28;20373;-70
2022/10/12 03:08:00;;;;;;;;;;;18.10;99.90;;;;;;5094206;28;20277;-70
2022/10/12 03:10:26;;;;;;;;;;;18.00;99.90;;;;;;5091858;28;19931;-71
2022/10/12 03:12:56;;;;;;;;;;;18.00;99.90;;;;;;5093321;28;20370;-71
2022/10/12 03:15:22;;;;;;;;;;;18.00;99.90;;;;;;5093205;28;20355;-70
2022/10/12 03:17:49;;;;;;;;;;;18.10;99.90;;;;;;5093433;28;20007;-70
2022/10/12 03:20:16;;;;;;;;;;;18.10;99.90;;;;;;5092690;28;19947;-70
2022/10/12 03:22:42;;;;;;;;;;;18.10;99.90;;;;;;5093237;28;19934;-70
2022/10/12 03:25:09;;;;;;;;;;;18.20;99.90;;;;;;5093018;28;19908;-70
2022/10/12 03:27:36;;;;;;;;;;;18.20;99.90;;;;;;5093121;28;20376;-71
2022/10/12 03:30:03;;;;;;;;;;;18.20;99.90;;;;;;5092725;28;20294;-76
2022/10/12 03:32:29;;;;;;;;;;;18.20;99.90;;;;;;5093130;28;20002;-76
2022/10/12 03:34:56;;;;;;;;;;;18.20;99.90;;;;;;5093252;28;19912;-76
2022/10/12 03:37:23;;;;;;;;;;;18.30;99.90;;;;;;5091488;28;20424;-75
2022/10/12 03:39:49;;;;;;;;;;;18.20;99.90;;;;;;5092783;28;19908;-75
2022/10/12 03:42:16;;;;;;;;;;;18.30;99.90;;;;;;5080056;28;20370;-69
2022/10/12 03:44:43;;;;;;;;;;;18.30;99.90;;;;;;5072648;28;19912;-75
2022/10/12 03:47:09;;;;;;;;;;;18.40;99.90;;;;;;5072551;28;19909;-74
2022/10/12 03:49:36;;;;;;;;;;;18.50;99.90;;;;;;5072262;28;20003;-70
2022/10/12 03:52:03;;;;;;;;;;;18.50;99.90;;;;;;5072563;28;20321;-74
2022/10/12 03:54:29;;;;;;;;;;;18.50;99.90;;;;;;5072842;28;19909;-72
2022/10/12 03:56:56;;;;;;;;;;;18.50;99.90;;;;;;5085663;28;19909;-75
2022/10/12 03:59:24;;;;;;;;;;;18.40;99.90;;;;;;5092440;28;19909;-76
2022/10/12 04:01:51;;;;;;;;;;;18.40;99.90;;;;;;5092705;28;20272;-75
2022/10/12 04:04:18;;;;;;;;;;;18.40;99.90;;;;;;5092380;28;19915;-71
2022/10/12 04:06:44;;;;;;;;;;;18.30;99.90;;;;;;5092335;28;19919;-74
2022/10/12 04:09:11;;;;;;;;;;;18.30;99.90;;;;;;5091770;28;19959;-76
2022/10/12 04:11:38;;;;;;;;;;;18.30;99.90;;;;;;5092684;28;19961;-71
2022/10/12 04:14:04;;;;;;;;;;;18.30;99.90;;;;;;5092416;28;19919;-71
2022/10/12 04:16:31;;;;;;;;;;;18.20;99.90;;;;;;5092711;28;19908;-74
2022/10/12 04:18:58;;;;;;;;;;;18.20;99.90;;;;;;5091851;28;20696;-73
2022/10/12 04:21:24;;;;;;;;;;;18.20;99.90;;;;;;5091401;28;19990;-71
2022/10/12 04:23:51;;;;;;;;;;;18.20;99.90;;;;;;5092225;28;20345;-72
2022/10/12 04:26:18;;;;;;;;;;;18.20;99.90;;;;;;5092139;28;19912;-72
2022/10/12 04:28:44;;;;;;;;;;;18.30;99.90;;;;;;5091879;28;19912;-71
2022/10/12 04:31:11;;;;;;;;;;;18.20;99.90;;;;;;5092112;28;19916;-70
2022/10/12 04:33:38;;;;;;;;;;;18.20;99.90;;;;;;5099079;28;19908;-74
2022/10/12 04:36:04;;;;;;;;;;;18.30;99.90;;;;;;5095916;28;20286;-72
2022/10/12 04:38:31;;;;;;;;;;;18.20;99.90;;;;;;5092295;28;19934;-70
2022/10/12 04:40:58;;;;;;;;;;;18.20;99.90;;;;;;5093442;28;19912;-75
2022/10/12 04:43:24;;;;;;;;;;;18.10;99.90;;;;;;5092566;28;19912;-69
2022/10/12 04:45:57;;;;;;;;;;;18.10;99.90;;;;;;5092230;28;19915;-70
2022/10/12 04:48:24;;;;;;;;;;;18.10;99.90;;;;;;5092172;28;20007;-75
2022/10/12 04:50:51;;;;;;;;;;;18.20;99.90;;;;;;5091775;28;19970;-72
2022/10/12 04:53:18;;;;;;;;;;;18.20;99.90;;;;;;5091858;28;19957;-73
2022/10/12 04:55:45;;;;;;;;;;;18.20;99.90;;;;;;5091993;28;19995;-76
2022/10/12 04:58:12;;;;;;;;;;;18.20;99.90;;;;;;5091737;28;19912;-74
2022/10/12 05:00:39;;;;;;;;;;;18.10;99.90;;;;;;5092020;28;20384;-74
2022/10/12 05:03:05;;;;;;;;;;;18.10;99.90;;;;;;5091764;28;20277;-75
2022/10/12 05:05:33;;;;;;;;;;;18.00;99.90;;;;;;5091839;28;19915;-74
2022/10/12 05:08:00;;;;;;;;;;;18.00;99.90;;;;;;5091673;28;19920;-76
2022/10/12 05:10:26;;;;;;;;;;;18.00;99.90;;;;;;5091381;28;19920;-74
2022/10/12 05:12:53;;;;;;;;;;;18.20;99.90;;;;;;5091910;28;19916;-75
2022/10/12 05:15:20;;;;;;;;;;;18.10;99.90;;;;;;5091618;28;20600;-73
2022/10/12 05:17:46;;;;;;;;;;;18.00;99.90;;;;;;5088382;28;20011;-73
2022/10/12 05:20:13;;;;;;;;;;;18.00;99.90;;;;;;5102847;28;19919;-72
2022/10/12 05:22:40;;;;;;;;;;;17.90;99.90;;;;;;5091662;28;19978;-75
2022/10/12 05:25:07;;;;;;;;;;;18.00;99.90;;;;;;5091543;28;19908;-74
2022/10/12 05:27:34;;;;;;;;;;;18.00;99.90;;;;;;5091243;28;20385;-70
2022/10/12 05:30:01;;;;;;;;;;;18.00;99.90;;;;;;5091702;28;19916;-69
2022/10/12 05:32:27;;;;;;;;;;;18.00;99.90;;;;;;5091788;28;19919;-73
2022/10/12 05:34:54;;;;;;;;;;;18.00;99.90;;;;;;5094146;28;19981;-73
2022/10/12 05:37:21;;;;;;;;;;;17.90;99.90;;;;;;5110157;28;19908;-76
2022/10/12 05:39:50;;;;;;;;;;;18.00;99.90;;;;;;5115419;28;20358;-71
2022/10/12 05:42:17;;;;;;;;;;;17.90;99.90;;;;;;5115823;28;19908;-74
2022/10/12 05:44:44;;;;;;;;;;;17.90;99.90;;;;;;5115429;28;19922;-76
2022/10/12 05:47:10;;;;;;;;;;;17.90;99.90;;;;;;5115441;28;19968;-75
2022/10/12 05:49:37;;;;;;;;;;;17.90;99.90;;;;;;5115190;28;20033;-75
2022/10/12 05:52:04;;;;;;;;;;;17.90;99.90;;;;;;5113185;28;19915;-77
2022/10/12 05:54:30;;;;;;;;;;;17.90;99.90;;;;;;5113429;28;19908;-74
2022/10/12 05:56:57;;;;;;;;;;;17.90;99.90;;;;;;5113586;28;19908;-70
2022/10/12 05:59:24;;;;;;;;;;;17.90;99.90;;;;;;5112525;28;19923;-76
2022/10/12 06:01:51;;;;;;;;;;;17.90;99.90;;;;;;5113025;28;19912;-70
2022/10/12 06:04:17;;;;;;;;;;;17.90;99.90;;;;;;5113050;28;19937;-72
2022/10/12 06:06:44;;;;;;;;;;;17.90;99.90;;;;;;5113046;28;19912;-73
2022/10/12 06:09:11;;;;;;;;;;;17.90;99.90;;;;;;5117223;28;19947;-71
2022/10/12 06:11:38;;;;;;;;;;;17.90;99.90;;;;;;5125955;28;19920;-70
2022/10/12 06:14:05;;;;;;;;;;;17.90;99.90;;;;;;5096669;28;19912;-74
2022/10/12 06:16:32;;;;;;;;;;;17.80;99.90;;;;;;5092699;28;19911;-70
2022/10/12 06:18:59;;;;;;;;;;;17.80;99.90;;;;;;5091801;28;19920;-75
2022/10/12 06:21:25;;;;;;;;;;;17.80;99.90;;;;;;5092504;28;19908;-76
2022/10/12 06:23:52;;;;;;;;;;;17.80;99.90;;;;;;5092731;28;20011;-76
2022/10/12 06:26:19;;;;;;;;;;;17.80;99.90;;;;;;5092794;28;20008;-68
2022/10/12 06:28:45;;;;;;;;;;;17.70;99.90;;;;;;5092293;28;19908;-71
2022/10/12 06:31:13;;;;;;;;;;;17.70;99.90;;;;;;5091626;28;20236;-72
2022/10/12 06:33:40;;;;;;;;;;;17.70;99.90;;;;;;5092371;28;19936;-70
2022/10/12 06:36:07;;;;;;;;;;;17.60;99.90;;;;;;5092907;28;19922;-71
2022/10/12 06:38:34;;;;;;;;;;;17.60;99.90;;;;;;5092246;28;19950;-72
2022/10/12 06:41:00;;;;;;;;;;;17.60;99.90;;;;;;5091701;28;19919;-73
2022/10/12 06:43:27;;;;;;;;;;;17.60;99.90;;;;;;5090263;28;19919;-75
2022/10/12 06:45:58;;;;;;;;;;;17.60;99.90;;;;;;5090164;28;19922;-72
2022/10/12 06:48:25;;;;;;;;;;;17.60;99.90;;;;;;5091655;28;19912;-70
2022/10/12 06:50:52;;;;;;;;;;;17.50;99.90;;;;;;5091557;28;19920;-73
2022/10/12 06:53:18;;;;;;;;;;;17.50;99.90;;;;;;5091737;28;19916;-71
2022/10/12 06:55:45;;;;;;;;;;;17.50;99.90;;;;;;5091792;28;20440;-73
2022/10/12 06:58:12;;;;;;;;;;;17.50;99.90;;;;;;5091251;28;20386;-73
2022/10/12 07:00:38;;;;;;;;;;;17.50;99.90;;;;;;5091563;28;20315;-73
2022/10/12 07:03:05;;;;;;;;;;;17.50;99.90;;;;;;5091574;28;20366;-75
2022/10/12 07:05:32;;;;;;;;;;;17.40;99.90;;;;;;5091525;28;19951;-70
2022/10/12 07:07:58;;;;;;;;;;;17.40;99.90;;;;;;5091114;28;19908;-70
2022/10/12 07:10:25;;;;;;;;;;;17.40;99.90;;;;;;5091145;28;19965;-71
2022/10/12 07:12:52;;;;;;;;;;;17.40;99.90;;;;;;5091164;28;19961;-70
2022/10/12 07:15:18;;;;;;;;;;;17.40;99.90;;;;;;5091252;28;19916;-70
2022/10/12 07:17:45;;;;;;;;;;;17.30;99.90;;;;;;5123843;27;20005;-71
2022/10/12 07:20:12;;;;;;;;;;;17.40;99.90;;;;;;5091222;28;19908;-68
2022/10/12 07:22:38;;;;;;;;;;;17.30;99.90;;;;;;5091318;28;19908;-69
2022/10/12 07:25:05;;;;;;;;;;;17.30;99.90;;;;;;5091072;28;20012;-73
2022/10/12 07:27:32;;;;;;;;;;;17.30;99.90;;;;;;5091009;28;20385;-68
2022/10/12 07:29:59;;;;;;;;;;;17.30;99.90;;;;;;5090994;28;19952;-71
2022/10/12 07:32:25;;;;;;;;;;;17.30;99.90;;;;;;5091290;28;19920;-75
2022/10/12 07:34:52;;;;;;;;;;;17.30;99.90;;;;;;5090859;28;20374;-74
2022/10/12 07:37:19;;;;;;;;;;;17.30;99.90;;;;;;5090457;28;19916;-73
2022/10/12 07:39:45;;;;;;;;;;;17.30;99.90;;;;;;5091196;28;19918;-72
2022/10/12 07:42:12;;;;;;;;;;;17.30;99.90;;;;;;5095380;28;19938;-68
2022/10/12 07:44:39;;;;;;;;;;;17.20;99.90;;;;;;5104032;28;19920;-69
2022/10/12 07:47:06;;;;;;;;;;;17.20;99.90;;;;;;5091101;28;19919;-72
2022/10/12 07:49:33;;;;;;;;;;;17.10;99.90;;;;;;5089961;28;19908;-69
2022/10/12 07:52:00;;;;;;;;;;;17.10;99.90;;;;;;5091245;28;19959;-73
2022/10/12 07:54:28;;;;;;;;;;;17.10;99.90;;;;;;5092571;28;19915;-69
2022/10/12 07:56:55;;;;;;;;;;;17.10;99.90;;;;;;5091092;28;20434;-69
2022/10/12 07:59:21;;;;;;;;;;;17.10;99.90;;;;;;5090199;28;19908;-72
2022/10/12 08:01:48;;;;;;;;;;;17.10;99.90;;;;;;5090342;28;19912;-74
2022/10/12 08:04:15;;;;;;;;;;;17.10;99.90;;;;;;5090235;28;19962;-71
2022/10/12 08:06:45;;;;;;;;;;;17.10;99.90;;;;;;5090395;28;20309;-69
2022/10/12 08:09:12;;;;;;;;;;;17.00;99.90;;;;;;5088002;28;19978;-73
2022/10/12 08:11:41;;;;;;;;;;;17.00;99.90;;;;;;5083577;28;20231;-73
2022/10/12 08:14:15;;;;;;;;;;;17.00;99.90;;;;;;5083768;28;19981;-75
2022/10/12 08:16:45;;;;;;;;;;;17.00;99.90;;;;;;5084041;28;19919;-74
2022/10/12 08:19:11;;;;;;;;;;;17.00;99.90;;;;;;5083577;28;20600;-69
2022/10/12 08:21:38;;;;;;;;;;;17.00;99.90;;;;;;5083842;28;19946;-73
2022/10/12 08:24:05;;;;;;;;;;;17.00;99.90;;;;;;5084010;28;19947;-72
2022/10/12 08:26:32;;;;;;;;;;;16.90;99.90;;;;;;5084043;28;20004;-71
2022/10/12 08:28:58;;;;;;;;;;;16.90;99.90;;;;;;5084015;28;19912;-69
2022/10/12 08:31:25;;;;;;;;;;;16.90;99.90;;;;;;5084225;28;20026;-73
2022/10/12 08:33:52;;;;;;;;;;;16.90;99.90;;;;;;5083935;28;20404;-69
2022/10/12 08:36:18;;;;;;;;;;;16.80;99.90;;;;;;5083839;28;20281;-72
2022/10/12 08:38:49;;;;;;;;;;;16.80;99.90;;;;;;5083724;28;20430;-69
2022/10/12 08:41:34;;;;;;;;;;;16.80;99.90;;;;;;5084368;28;19920;-71
2022/10/12 08:44:00;;;;;;;;;;;16.80;99.90;;;;;;5083933;28;19948;-69
2022/10/12 08:46:27;;;;;;;;;;;16.80;99.90;;;;;;5083889;28;20011;-71
2022/10/12 08:49:04;;;;;;;;;;;16.80;99.90;;;;;;5083617;28;19919;-75
2022/10/12 08:51:31;;;;;;;;;;;16.80;99.90;;;;;;5083890;28;20156;-75
2022/10/12 08:54:11;;;;;;;;;;;16.80;99.90;;;;;;5083805;28;19916;-74
2022/10/12 08:56:40;;;;;;;;;;;16.80;99.90;;;;;;5084177;28;19998;-72
2022/10/12 08:59:13;;;;;;;;;;;16.80;99.90;;;;;;5083539;28;19916;-72
2022/10/12 09:01:56;;;;;;;;;;;16.70;99.90;;;;;;5083983;28;20719;-73
2022/10/12 09:04:41;;;;;;;;;;;16.70;99.90;;;;;;5083274;28;19943;-71
2022/10/12 09:07:08;;;;;;;;;;;16.70;99.90;;;;;;5082899;28;20039;-71
2022/10/12 09:09:46;;;;;;;;;;;16.70;99.90;;;;;;5086439;28;20412;-71
2022/10/12 09:12:22;;;;;;;;;;;16.70;99.90;;;;;;5089098;28;19916;-68
2022/10/12 09:14:50;;;;;;;;;;;16.70;99.90;;;;;;5088391;28;19912;-69
2022/10/12 09:17:22;;;;;;;;;;;16.70;99.90;;;;;;5098788;28;19943;-67
2022/10/12 09:19:51;;;;;;;;;;;16.70;99.90;;;;;;5093756;28;20019;-73
2022/10/12 09:22:19;;;;;;;;;;;16.70;99.90;;;;;;5087454;28;19912;-73
2022/10/12 09:24:47;;;;;;;;;;;16.70;99.90;;;;;;5087830;28;19912;-69
2022/10/12 09:27:15;;;;;;;;;;;16.70;99.90;;;;;;5088212;28;19951;-68
2022/10/12 09:29:46;;;;;;;;;;;16.70;99.90;;;;;;5086754;28;19912;-69
2022/10/12 09:32:20;;;;;;;;;;;16.60;99.90;;;;;;5087301;28;19912;-70
2022/10/12 09:34:48;;;;;;;;;;;16.60;99.90;;;;;;5086776;28;19912;-72
2022/10/12 09:37:18;;;;;;;;;;;16.60;99.90;;;;;;5086888;28;19917;-71
2022/10/12 09:39:46;;;;;;;;;;;16.60;99.90;;;;;;5087120;28;20378;-68
2022/10/12 09:42:12;;;;;;;;;;;16.60;99.90;;;;;;5086468;28;19999;-70
2022/10/12 09:44:48;;;;;;;;;;;16.60;99.90;;;;;;5086544;28;19989;-68
2022/10/12 09:47:25;;;;;;;;;;;16.60;99.90;;;;;;5086805;28;19912;-69
2022/10/12 09:49:57;;;;;;;;;;;16.60;99.90;;;;;;5086593;28;19918;-70
2022/10/12 09:52:26;;;;;;;;;;;16.60;99.90;;;;;;5086480;28;19978;-74
2022/10/12 09:54:54;;;;;;;;;;;16.60;99.90;;;;;;5086970;28;19995;-70
2022/10/12 09:57:32;;;;;;;;;;;16.60;99.90;;;;;;5091727;28;19912;-70
2022/10/12 10:00:05;;;;;;;;;;;16.60;99.90;;;;;;5094890;28;19908;-71
2022/10/12 10:02:33;;;;;;;;;;;16.60;99.90;;;;;;5094720;28;19915;-69
2022/10/12 10:05:14;;;;;;;;;;;16.50;99.90;;;;;;5094635;28;20003;-71
2022/10/12 10:07:40;;;;;;;;;;;16.50;99.90;;;;;;5094517;28;19908;-71
2022/10/12 10:10:24;;;;;;;;;;;16.50;99.90;;;;;;5094570;28;19920;-74
2022/10/12 10:12:52;;;;;;;;;;;16.50;99.90;;;;;;5094744;28;20377;-71
2022/10/12 10:15:21;;;;;;;;;;;16.50;99.90;;;;;;5094467;28;20375;-73
2022/10/12 10:17:52;;;;;;;;;;;16.50;99.90;;;;;;5094259;28;19973;-73
2022/10/12 10:20:25;;;;;;;;;;;16.50;99.90;;;;;;5094014;28;20446;-73
2022/10/12 10:22:52;;;;;;;;;;;16.50;99.90;;;;;;5094844;28;19908;-70
2022/10/12 10:25:20;;;;;;;;;;;16.50;99.90;;;;;;5094162;28;19916;-68
2022/10/12 10:27:47;;;;;;;;;;;16.50;99.90;;;;;;5094249;28;19939;-74
2022/10/12 10:30:16;;;;;;;;;;;16.50;99.90;;;;;;5094577;28;19938;-69
2022/10/12 10:32:43;;;;;;;;;;;16.50;99.90;;;;;;5095038;28;19908;-67
2022/10/12 10:35:13;;;;;;;;;;;16.50;99.90;;;;;;5095330;28;19908;-71
2022/10/12 10:37:44;;;;;;;;;;;16.40;99.90;;;;;;5093813;28;20268;-71
2022/10/12 10:40:27;;;;;;;;;;;16.40;99.90;;;;;;5094634;28;20092;-69
2022/10/12 10:42:56;;;;;;;;;;;16.40;99.90;;;;;;5094961;28;19923;-67
2022/10/12 10:45:28;;;;;;;;;;;16.40;99.90;;;;;;5097228;28;19909;-68
2022/10/12 10:48:00;;;;;;;;;;;16.40;99.90;;;;;;5095968;28;19908;-67
2022/10/12 10:50:36;;;;;;;;;;;16.40;99.90;;;;;;5097564;28;19923;-68
2022/10/12 10:53:23;;;;;;;;;;;16.50;99.90;;;;;;5104780;28;19908;-70
2022/10/12 10:56:12;;;;;;;;;;;16.40;99.90;;;;;;5098656;28;19919;-69
2022/10/12 10:58:41;;;;;;;;;;;16.40;99.90;;;;;;5093969;28;19912;-68
2022/10/12 11:01:28;;;;;;;;;;;16.40;99.90;;;;;;5093927;28;20282;-68
2022/10/12 11:03:57;;;;;;;;;;;16.40;99.90;;;;;;5094330;28;19912;-68
2022/10/12 11:06:27;;;;;;;;;;;16.40;99.90;;;;;;5093991;28;19951;-68
2022/10/12 11:08:59;;;;;;;;;;;16.40;99.90;;;;;;5093495;28;19923;-67
2022/10/12 11:11:27;;;;;;;;;;;16.40;99.90;;;;;;5093906;28;19922;-72
2022/10/12 11:14:23;;;;;;;;;;;16.40;99.90;;;;;;5093398;28;20393;-69
2022/10/12 11:16:53;;;;;;;;;;;16.40;99.90;;;;;;5079709;28;20410;-69
2022/10/12 11:19:37;;;;;;;;;;;16.40;99.90;;;;;;5084549;28;19919;-74
2022/10/12 11:22:24;;;;;;;;;;;16.40;99.90;;;;;;5085037;28;20352;-71
2022/10/12 11:25:08;;;;;;;;;;;16.40;99.90;;;;;;5084699;28;19912;-67
2022/10/12 11:27:36;;;;;;;;;;;16.40;99.90;;;;;;5084411;28;20025;-67
2022/10/12 11:30:06;;;;;;;;;;;16.40;99.90;;;;;;5084376;28;20275;-71
2022/10/12 11:32:36;;;;;;;;;;;16.40;99.90;;;;;;5083580;28;19912;-73
2022/10/12 11:35:06;;;;;;;;;;;16.40;99.90;;;;;;5084505;28;19920;-69
2022/10/12 11:37:38;;;;;;;;;;;16.40;99.90;;;;;;5084683;28;19919;-69
2022/10/12 11:40:08;;;;;;;;;;;16.40;99.90;;;;;;5085149;28;19923;-72
2022/10/12 11:42:39;;;;;;;;;;;16.40;99.90;;;;;;5084711;28;20535;-69
2022/10/12 11:45:14;;;;;;;;;;;16.40;99.90;;;;;;5084643;28;19912;-73
2022/10/12 11:47:46;;;;;;;;;;;16.40;99.90;;;;;;5084432;28;19919;-72
2022/10/12 11:50:28;;;;;;;;;;;16.40;99.90;;;;;;5084392;28;20283;-76
2022/10/12 11:52:56;;;;;;;;;;;16.40;99.90;;;;;;5085068;28;19923;-72
2022/10/12 11:55:44;;;;;;;;;;;16.30;99.90;;;;;;5084177;28;19912;-75
2022/10/12 11:58:14;;;;;;;;;;;16.40;99.90;;;;;;5090641;28;19908;-74
2022/10/12 12:00:46;;;;;;;;;;;16.40;99.90;;;;;;5092957;28;20313;-74
2022/10/12 12:03:16;;;;;;;;;;;16.40;99.90;;;;;;5092401;28;19908;-74
2022/10/12 12:05:42;;;;;;;;;;;16.40;99.90;;;;;;5092887;28;19912;-75
2022/10/12 12:08:20;;;;;;;;;;;16.40;99.90;;;;;;5092566;28;20412;-76
2022/10/12 12:10:50;;;;;;;;;;;16.40;99.90;;;;;;5092531;28;19924;-75
2022/10/12 12:13:22;;;;;;;;;;;16.30;99.90;;;;;;5092361;28;19919;-74
2022/10/12 12:15:51;;;;;;;;;;;16.40;99.90;;;;;;5092621;28;19918;-74
2022/10/12 12:18:20;;;;;;;;;;;16.40;99.90;;;;;;5091964;28;19915;-69
2022/10/12 12:20:46;;;;;;;;;;;16.40;99.90;;;;;;5092398;28;19909;-75
2022/10/12 12:23:20;;;;;;;;;;;16.30;99.90;;;;;;5092436;28;19912;-73
2022/10/12 12:25:47;;;;;;;;;;;16.40;99.90;;;;;;5097233;28;20324;-69
2022/10/12 12:28:31;;;;;;;;;;;16.30;99.90;;;;;;5105825;28;19909;-72
2022/10/12 12:31:27;;;;;;;;;;;16.30;99.90;;;;;;5093174;28;19920;-74
2022/10/12 12:34:05;;;;;;;;;;;16.30;99.90;;;;;;5087583;28;20378;-72
2022/10/12 12:36:32;;;;;;;;;;;16.30;99.90;;;;;;5094542;28;20307;-72
2022/10/12 12:39:00;;;;;;;;;;;16.40;99.90;;;;;;5092506;28;19908;-73
2022/10/12 12:41:27;;;;;;;;;;;16.30;99.90;;;;;;5092307;28;20263;-72
2022/10/12 12:44:00;;;;;;;;;;;16.30;99.90;;;;;;5095549;28;20019;-72
2022/10/12 12:46:46;;;;;;;;;;;16.30;99.90;;;;;;5096526;28;19908;-73
2022/10/12 12:49:35;;;;;;;;;;;16.30;99.90;;;;;;5096047;28;19915;-73
2022/10/12 12:52:03;;;;;;;;;;;16.30;99.90;;;;;;5093302;28;20040;-74
2022/10/12 12:54:30;;;;;;;;;;;16.30;99.90;;;;;;5096350;28;20411;-69
2022/10/12 12:57:02;;;;;;;;;;;16.20;99.90;;;;;;5096020;28;19912;-74
2022/10/12 12:59:29;;;;;;;;;;;16.20;99.90;;;;;;5096201;28;19940;-75
2022/10/12 13:02:02;;;;;;;;;;;16.20;99.90;;;;;;5093196;28;20337;-74
2022/10/12 13:04:29;;;;;;;;;;;16.20;99.90;;;;;;5095801;28;20270;-73
2022/10/12 13:07:05;;;;;;;;;;;16.20;99.90;;;;;;5095846;28;19919;-72
2022/10/12 13:09:36;;;;;;;;;;;16.20;99.90;;;;;;5101263;28;20347;-73
2022/10/12 13:12:15;;;;;;;;;;;16.20;99.90;;;;;;5116558;28;19923;-74
2022/10/12 13:14:44;;;;;;;;;;;16.20;99.90;;;;;;5075843;28;19908;-71
2022/10/12 13:17:14;;;;;;;;;;;16.20;99.90;;;;;;5074754;28;20283;-73
2022/10/12 13:19:41;;;;;;;;;;;16.20;99.90;;;;;;5075516;28;20323;-70
2022/10/12 13:22:17;;;;;;;;;;;16.20;99.90;;;;;;5075631;28;19909;-73
2022/10/12 13:24:56;;;;;;;;;;;16.20;99.90;;;;;;5075255;28;20306;-71
2022/10/12 13:27:23;;;;;;;;;;;16.20;99.90;;;;;;5074966;28;19909;-70
2022/10/12 13:29:55;;;;;;;;;;;16.10;99.90;;;;;;5075104;28;20310;-72
2022/10/12 13:32:30;;;;;;;;;;;16.10;99.90;;;;;;5075040;28;20295;-74
2022/10/12 13:35:01;;;;;;;;;;;16.20;99.90;;;;;;5075157;28;19947;-73
2022/10/12 13:37:32;;;;;;;;;;;16.10;99.90;;;;;;5074769;28;20082;-73
2022/10/12 13:39:58;;;;;;;;;;;16.10;99.90;;;;;;5075046;28;19912;-74
2022/10/12 13:42:27;;;;;;;;;;;16.20;99.90;;;;;;5075023;28;19951;-70
2022/10/12 13:44:56;;;;;;;;;;;16.20;99.90;;;;;;5075058;28;19913;-71
2022/10/12 13:47:27;;;;;;;;;;;16.20;99.90;;;;;;5074458;28;19912;-69
2022/10/12 13:49:54;;;;;;;;;;;16.20;99.90;;;;;;5074824;28;19912;-73
2022/10/12 13:52:24;;;;;;;;;;;16.20;99.90;;;;;;5074547;28;20010;-72
2022/10/12 13:54:51;;;;;;;;;;;16.20;99.90;;;;;;5073998;28;19918;-71
2022/10/12 13:57:19;;;;;;;;;;;16.20;99.90;;;;;;5074722;28;19908;-74
2022/10/12 13:59:47;;;;;;;;;;;16.20;99.90;;;;;;5074788;28;19908;-71
2022/10/12 14:02:32;;;;;;;;;;;16.20;99.90;;;;;;5081566;28;19912;-72
2022/10/12 14:05:03;;;;;;;;;;;16.20;99.90;;;;;;5089311;28;19909;-67
2022/10/12 14:07:34;;;;;;;;;;;16.20;99.90;;;;;;5074954;28;19920;-69
2022/10/12 14:10:05;;;;;;;;;;;16.20;99.90;;;;;;5074331;28;19921;-73
2022/10/12 14:12:31;;;;;;;;;;;16.30;99.90;;;;;;5078290;28;19941;-74
2022/10/12 14:14:59;;;;;;;;;;;16.30;99.90;;;;;;5094963;28;20378;-74
2022/10/12 14:17:26;;;;;;;;;;;16.30;99.90;;;;;;5093804;28;19920;-73
2022/10/12 14:19:54;;;;;;;;;;;16.40;99.90;;;;;;5094608;28;19908;-73
2022/10/12 14:22:20;;;;;;;;;;;16.40;99.90;;;;;;5094708;28;19991;-71
2022/10/12 14:24:47;;;;;;;;;;;16.40;99.90;;;;;;5094765;28;19908;-71
2022/10/12 14:27:25;;;;;;;;;;;16.40;99.90;;;;;;5094168;28;19916;-73
2022/10/12 14:29:54;;;;;;;;;;;16.40;99.90;;;;;;5094313;28;19909;-75